Time;durP1;ratioP1;P1;durP2;ratioP2;P2;SDS_P1;SDS_P2;PMS_P1;PMS_P2;Temp;Humidity;BMP_temperature;BMP_pressure;BME280_temperature;BME280_humidity;BME280_pressure;Samples;Min_cycle;Max_cycle;Signal;HPM_P1;HPM_P2
2023/07/09 00:00:31;;;;;;;;;;;;;;;;;;2206095;59;1818;-23
2023/07/09 00:03:02;;;;;;;;;;;;;;;;;;2201610;59;2759;-23
2023/07/09 00:05:32;;;;;;;;;;;;;;;;;;2205430;59;2511;-23
2023/07/09 00:08:02;;;;;;;;;;;;;;;;;;2205804;59;1857;-23
2023/07/09 00:10:34;;;;;;;;;;;;;;;;;;2204824;59;1891;-23
2023/07/09 00:13:04;;;;;;;;;;;;;;;;;;2205603;59;2585;-23
2023/07/09 00:15:34;;;;;;;;;;;;;;;;;;2205529;59;1833;-23
2023/07/09 00:18:04;;;;;;;;;;;;;;;;;;2201357;67;1969;-23
2023/07/09 00:20:35;;;;;;;;;;;;;;;;;;2205620;59;1889;-23
2023/07/09 00:23:05;;;;;;;;;;;;;;;;;;2205310;67;1917;-23
2023/07/09 00:25:35;;;;;;;;;;;;;;;;;;2205089;59;1927;-23
2023/07/09 00:28:09;;;;;;;;;;;;;;;;;;2205385;59;2213;-23
2023/07/09 00:30:42;;;;;;;;;;;;;;;;;;2202859;59;2025;-23
2023/07/09 00:33:14;;;;;;;;;;;;;;;;;;2205830;59;1678;-23
2023/07/09 00:35:46;;;;;;;;;;;;;;;;;;2201811;67;1980;-23
2023/07/09 00:38:21;;;;;;;;;;;;;;;;;;2202079;59;1877;-23
2023/07/09 00:41:04;;;;;;;;;;;;;;;;;;2205805;67;1607;-23
2023/07/09 00:43:36;;;;;;;;;;;;;;;;;;2205540;67;2143;-23
2023/07/09 00:46:13;;;;;;;;;;;;;;;;;;2204855;59;3188;-23
2023/07/09 00:48:45;;;;;;;;;;;;;;;;;;2205481;67;2489;-23
2023/07/09 00:51:17;;;;;;;;;;;;;;;;;;2205076;59;2000;-23
2023/07/09 00:53:51;;;;;;;;;;;;;;;;;;2201756;67;1940;-23
2023/07/09 00:56:33;;;;;;;;;;;;;;;;;;2204681;59;2346;-23
2023/07/09 00:59:06;;;;;;;;;;;;;;;;;;2204810;67;1846;-23
2023/07/09 01:01:40;;;;;;;;;;;;;;;;;;2205113;67;1795;-23
2023/07/09 01:04:10;;;;;;;;;;;;;;;;;;2204882;59;1840;-23
2023/07/09 01:06:45;;;;;;;;;;;;;;;;;;2205763;59;2276;-23
2023/07/09 01:09:16;;;;;;;;;;;;;;;;;;2205579;67;1432;-23
2023/07/09 01:11:46;;;;;;;;;;;;;;;;;;2203789;59;2159;-23
2023/07/09 01:14:21;;;;;;;;;;;;;;;;;;2206720;67;1259;-23
2023/07/09 01:17:00;;;;;;;;;;;;;;;;;;2205525;67;1996;-23
2023/07/09 01:19:40;;;;;;;;;;;;;;;;;;2201861;67;1538;-23
2023/07/09 01:22:11;;;;;;;;;;;;;;;;;;2204997;59;1964;-23
2023/07/09 01:24:49;;;;;;;;;;;;;;;;;;2204689;67;1543;-23
2023/07/09 01:27:23;;;;;;;;;;;;;;;;;;2205589;59;1670;-23
2023/07/09 01:29:54;;;;;;;;;;;;;;;;;;2206215;67;1248;-23
2023/07/09 01:32:24;;;;;;;;;;;;;;;;;;2202342;59;1647;-23
2023/07/09 01:34:57;;;;;;;;;;;;;;;;;;2205340;59;1787;-23
2023/07/09 01:37:31;;;;;;;;;;;;;;;;;;2205184;67;1919;-23
2023/07/09 01:40:04;;;;;;;;;;;;;;;;;;2204884;59;1568;-23
2023/07/09 01:42:37;;;;;;;;;;;;;;;;;;2205474;67;1585;-23
2023/07/09 01:45:10;;;;;;;;;;;;;;;;;;2206040;67;1598;-23
2023/07/09 01:47:40;;;;;;;;;;;;;;;;;;2205142;59;2570;-23
2023/07/09 01:50:10;;;;;;;;;;;;;;;;;;2206665;59;1798;-23
2023/07/09 01:52:42;;;;;;;;;;;;;;;;;;2207340;59;2432;-23
2023/07/09 01:55:16;;;;;;;;;;;;;;;;;;2204670;59;2161;-23
2023/07/09 01:57:47;;;;;;;;;;;;;;;;;;2201927;59;4130;-23
2023/07/09 02:00:17;;;;;;;;;;;;;;;;;;2205028;67;1788;-23
2023/07/09 02:02:48;;;;;;;;;;;;;;;;;;2205829;67;2231;-23
2023/07/09 02:05:19;;;;;;;;;;;;;;;;;;2204924;59;1919;-23
2023/07/09 02:07:49;;;;;;;;;;;;;;;;;;2205670;67;1776;-23
2023/07/09 02:10:19;;;;;;;;;;;;;;;;;;2205437;67;2770;-23
2023/07/09 02:12:49;;;;;;;;;;;;;;;;;;2205549;59;2509;-23
2023/07/09 02:15:20;;;;;;;;;;;;;;;;;;2204914;59;1545;-24
2023/07/09 02:17:52;;;;;;;;;;;;;;;;;;2201991;63;2312;-23
2023/07/09 02:20:26;;;;;;;;;;;;;;;;;;2205392;67;1845;-23
2023/07/09 02:22:56;;;;;;;;;;;;;;;;;;2202263;67;2102;-23
2023/07/09 02:25:26;;;;;;;;;;;;;;;;;;2205700;59;2393;-23
2023/07/09 02:27:57;;;;;;;;;;;;;;;;;;2205590;59;1808;-23
2023/07/09 02:30:27;;;;;;;;;;;;;;;;;;2204927;59;1837;-23
2023/07/09 02:32:57;;;;;;;;;;;;;;;;;;2205434;60;2353;-23
2023/07/09 02:35:27;;;;;;;;;;;;;;;;;;2204972;67;1621;-23
2023/07/09 02:37:58;;;;;;;;;;;;;;;;;;2205030;67;2008;-23
2023/07/09 02:40:28;;;;;;;;;;;;;;;;;;2204299;67;2369;-23
2023/07/09 02:42:58;;;;;;;;;;;;;;;;;;2205343;59;3170;-23
2023/07/09 02:45:29;;;;;;;;;;;;;;;;;;2205289;59;1800;-23
2023/07/09 02:47:59;;;;;;;;;;;;;;;;;;2204520;60;2589;-23
2023/07/09 02:50:29;;;;;;;;;;;;;;;;;;2203999;59;2219;-23
2023/07/09 02:53:00;;;;;;;;;;;;;;;;;;2202075;59;2821;-23
2023/07/09 02:55:30;;;;;;;;;;;;;;;;;;2205047;59;2550;-23
2023/07/09 02:58:00;;;;;;;;;;;;;;;;;;2205084;59;2034;-23
2023/07/09 03:00:31;;;;;;;;;;;;;;;;;;2204884;59;1933;-23
2023/07/09 03:03:01;;;;;;;;;;;;;;;;;;2205502;59;1773;-23
2023/07/09 03:05:31;;;;;;;;;;;;;;;;;;2205314;59;1889;-23
2023/07/09 03:08:01;;;;;;;;;;;;;;;;;;2205059;59;2039;-23
2023/07/09 03:10:31;;;;;;;;;;;;;;;;;;2205046;67;1398;-23
2023/07/09 03:13:02;;;;;;;;;;;;;;;;;;2205438;59;1603;-23
2023/07/09 03:15:32;;;;;;;;;;;;;;;;;;2202004;60;1925;-23
2023/07/09 03:18:02;;;;;;;;;;;;;;;;;;2205245;67;2565;-23
2023/07/09 03:20:35;;;;;;;;;;;;;;;;;;2202060;67;1737;-23
2023/07/09 03:23:06;;;;;;;;;;;;;;;;;;2205522;67;1653;-23
2023/07/09 03:25:40;;;;;;;;;;;;;;;;;;2205434;59;1768;-23
2023/07/09 03:28:13;;;;;;;;;;;;;;;;;;2205600;59;2373;-23
2023/07/09 03:30:45;;;;;;;;;;;;;;;;;;2205515;59;1794;-23
2023/07/09 03:33:16;;;;;;;;;;;;;;;;;;2205814;67;1695;-23
2023/07/09 03:35:47;;;;;;;;;;;;;;;;;;2206337;67;1963;-25
2023/07/09 03:38:17;;;;;;;;;;;;;;;;;;2202247;59;1298;-23
2023/07/09 03:40:51;;;;;;;;;;;;;;;;;;2207028;67;1166;-23
2023/07/09 03:43:22;;;;;;;;;;;;;;;;;;2207053;67;1816;-23
2023/07/09 03:45:52;;;;;;;;;;;;;;;;;;2202950;59;1682;-23
2023/07/09 03:48:22;;;;;;;;;;;;;;;;;;2206270;67;2304;-23
2023/07/09 03:50:53;;;;;;;;;;;;;;;;;;2205043;59;2181;-24
2023/07/09 03:53:23;;;;;;;;;;;;;;;;;;2205864;67;2460;-23
2023/07/09 03:55:54;;;;;;;;;;;;;;;;;;2202604;59;2132;-24
2023/07/09 03:58:25;;;;;;;;;;;;;;;;;;2205408;59;2349;-24
2023/07/09 04:00:55;;;;;;;;;;;;;;;;;;2205718;67;1962;-24
2023/07/09 04:03:25;;;;;;;;;;;;;;;;;;2206001;59;1851;-23
2023/07/09 04:05:56;;;;;;;;;;;;;;;;;;2204935;67;1760;-23
2023/07/09 04:08:27;;;;;;;;;;;;;;;;;;2205877;67;1803;-23
2023/07/09 04:11:02;;;;;;;;;;;;;;;;;;2202079;59;2010;-23
2023/07/09 04:13:32;;;;;;;;;;;;;;;;;;2205607;59;1784;-23
2023/07/09 04:16:03;;;;;;;;;;;;;;;;;;2205516;67;1945;-23
2023/07/09 04:18:33;;;;;;;;;;;;;;;;;;2207449;67;2498;-23
2023/07/09 04:21:03;;;;;;;;;;;;;;;;;;2200021;59;2576;-23
2023/07/09 04:23:34;;;;;;;;;;;;;;;;;;2206054;67;2340;-24
2023/07/09 04:26:04;;;;;;;;;;;;;;;;;;2199148;59;2769;-23
2023/07/09 04:28:34;;;;;;;;;;;;;;;;;;2205312;59;1896;-23
2023/07/09 04:31:04;;;;;;;;;;;;;;;;;;2205801;59;1468;-23
2023/07/09 04:33:35;;;;;;;;;;;;;;;;;;2206129;67;1617;-23
2023/07/09 04:36:06;;;;;;;;;;;;;;;;;;2206241;59;1943;-24
2023/07/09 04:38:36;;;;;;;;;;;;;;;;;;2206621;67;1519;-23
2023/07/09 04:41:07;;;;;;;;;;;;;;;;;;2205964;59;1679;-23
2023/07/09 04:43:37;;;;;;;;;;;;;;;;;;2205301;67;1691;-23
2023/07/09 04:46:07;;;;;;;;;;;;;;;;;;2205977;67;1666;-23
2023/07/09 04:48:38;;;;;;;;;;;;;;;;;;2205909;67;1522;-23
2023/07/09 04:51:09;;;;;;;;;;;;;;;;;;2204446;59;2581;-23
2023/07/09 04:53:39;;;;;;;;;;;;;;;;;;2205840;67;1852;-23
2023/07/09 04:56:09;;;;;;;;;;;;;;;;;;2206292;59;2458;-23
2023/07/09 04:58:39;;;;;;;;;;;;;;;;;;2202464;67;1951;-24
2023/07/09 05:01:10;;;;;;;;;;;;;;;;;;2202385;67;2214;-23
2023/07/09 05:03:40;;;;;;;;;;;;;;;;;;2206197;59;1969;-23
2023/07/09 05:06:10;;;;;;;;;;;;;;;;;;2202134;59;1731;-24
2023/07/09 05:08:42;;;;;;;;;;;;;;;;;;2202547;59;2403;-24
2023/07/09 05:11:13;;;;;;;;;;;;;;;;;;2205989;59;3865;-23
2023/07/09 05:13:43;;;;;;;;;;;;;;;;;;2205975;59;1885;-23
2023/07/09 05:16:13;;;;;;;;;;;;;;;;;;2205680;67;1991;-23
2023/07/09 05:18:45;;;;;;;;;;;;;;;;;;2203450;67;1821;-24
2023/07/09 05:21:15;;;;;;;;;;;;;;;;;;2201939;67;1900;-23
2023/07/09 05:23:45;;;;;;;;;;;;;;;;;;2205990;67;2250;-23
2023/07/09 05:26:15;;;;;;;;;;;;;;;;;;2205295;59;2407;-23
2023/07/09 05:28:48;;;;;;;;;;;;;;;;;;2206078;67;2608;-23
2023/07/09 05:31:18;;;;;;;;;;;;;;;;;;2204700;59;1963;-23
2023/07/09 05:33:49;;;;;;;;;;;;;;;;;;2205734;59;1634;-23
2023/07/09 05:36:19;;;;;;;;;;;;;;;;;;2205479;59;1997;-23
2023/07/09 05:38:50;;;;;;;;;;;;;;;;;;2205767;59;1998;-23
2023/07/09 05:41:21;;;;;;;;;;;;;;;;;;2205971;67;2710;-23
2023/07/09 05:43:52;;;;;;;;;;;;;;;;;;2205712;67;3133;-23
2023/07/09 05:46:22;;;;;;;;;;;;;;;;;;2205749;59;1798;-23
2023/07/09 05:48:53;;;;;;;;;;;;;;;;;;2205910;67;2434;-23
2023/07/09 05:51:24;;;;;;;;;;;;;;;;;;2200476;59;2192;-23
2023/07/09 05:53:54;;;;;;;;;;;;;;;;;;2205549;67;2730;-23
2023/07/09 05:56:24;;;;;;;;;;;;;;;;;;2205155;59;2337;-23
2023/07/09 05:58:56;;;;;;;;;;;;;;;;;;2202796;67;2026;-23
2023/07/09 06:01:27;;;;;;;;;;;;;;;;;;2205070;67;2484;-23
2023/07/09 06:03:57;;;;;;;;;;;;;;;;;;2205282;59;2108;-23
2023/07/09 06:06:27;;;;;;;;;;;;;;;;;;2205071;67;2662;-23
2023/07/09 06:08:57;;;;;;;;;;;;;;;;;;2203131;67;1996;-23
2023/07/09 06:11:28;;;;;;;;;;;;;;;;;;2207696;59;1899;-23
2023/07/09 06:13:58;;;;;;;;;;;;;;;;;;2205152;67;1916;-23
2023/07/09 06:16:29;;;;;;;;;;;;;;;;;;2204994;67;1946;-23
2023/07/09 06:18:59;;;;;;;;;;;;;;;;;;2204913;67;1979;-23
2023/07/09 06:21:29;;;;;;;;;;;;;;;;;;2204869;59;1550;-23
2023/07/09 06:23:59;;;;;;;;;;;;;;;;;;2200687;67;1761;-23
2023/07/09 06:26:30;;;;;;;;;;;;;;;;;;2204933;59;1769;-23
2023/07/09 06:29:00;;;;;;;;;;;;;;;;;;2200752;59;1900;-23
2023/07/09 06:31:30;;;;;;;;;;;;;;;;;;2205160;59;2015;-23
2023/07/09 06:34:03;;;;;;;;;;;;;;;;;;2204788;67;2414;-23
2023/07/09 06:36:34;;;;;;;;;;;;;;;;;;2204379;59;2386;-23
2023/07/09 06:39:05;;;;;;;;;;;;;;;;;;2203572;59;2586;-23
2023/07/09 06:41:38;;;;;;;;;;;;;;;;;;2203976;59;3603;-23
2023/07/09 06:44:09;;;;;;;;;;;;;;;;;;2205464;67;2810;-23
2023/07/09 06:46:39;;;;;;;;;;;;;;;;;;2207168;67;1926;-23
2023/07/09 06:49:09;;;;;;;;;;;;;;;;;;2196808;59;2527;-23
2023/07/09 06:51:39;;;;;;;;;;;;;;;;;;2204647;67;2175;-23
2023/07/09 06:54:11;;;;;;;;;;;;;;;;;;2204082;59;2446;-23
2023/07/09 06:56:41;;;;;;;;;;;;;;;;;;2204969;59;2383;-23
2023/07/09 06:59:11;;;;;;;;;;;;;;;;;;2204016;67;2004;-23
2023/07/09 07:01:42;;;;;;;;;;;;;;;;;;2201595;67;2769;-23
2023/07/09 07:04:12;;;;;;;;;;;;;;;;;;2202389;59;1766;-24
2023/07/09 07:06:42;;;;;;;;;;;;;;;;;;2205826;67;1823;-23
2023/07/09 07:09:13;;;;;;;;;;;;;;;;;;2204991;67;1819;-23
2023/07/09 07:11:43;;;;;;;;;;;;;;;;;;2202556;59;1853;-23
2023/07/09 07:14:13;;;;;;;;;;;;;;;;;;2205922;67;1873;-23
2023/07/09 07:16:43;;;;;;;;;;;;;;;;;;2205837;59;1939;-23
2023/07/09 07:19:14;;;;;;;;;;;;;;;;;;2203686;67;1813;-23
2023/07/09 07:21:44;;;;;;;;;;;;;;;;;;2205644;67;1976;-23
2023/07/09 07:24:14;;;;;;;;;;;;;;;;;;2204899;59;1645;-23
2023/07/09 07:26:44;;;;;;;;;;;;;;;;;;2204272;59;2497;-23
2023/07/09 07:29:14;;;;;;;;;;;;;;;;;;2204489;67;2609;-23
2023/07/09 07:31:45;;;;;;;;;;;;;;;;;;2206532;59;2298;-23
2023/07/09 07:34:15;;;;;;;;;;;;;;;;;;2205805;67;2674;-23
2023/07/09 07:36:45;;;;;;;;;;;;;;;;;;2206142;67;2432;-23
2023/07/09 07:39:15;;;;;;;;;;;;;;;;;;2204643;59;2283;-23
2023/07/09 07:41:45;;;;;;;;;;;;;;;;;;2205708;59;1930;-23
2023/07/09 07:44:16;;;;;;;;;;;;;;;;;;2205744;67;2119;-24
2023/07/09 07:46:46;;;;;;;;;;;;;;;;;;2205585;59;2697;-24
2023/07/09 07:49:16;;;;;;;;;;;;;;;;;;2202583;67;2617;-24
2023/07/09 07:51:48;;;;;;;;;;;;;;;;;;2205346;59;2533;-24
2023/07/09 07:54:18;;;;;;;;;;;;;;;;;;2204600;59;2221;-23
2023/07/09 07:56:48;;;;;;;;;;;;;;;;;;2205472;59;1949;-24
2023/07/09 07:59:18;;;;;;;;;;;;;;;;;;2204673;67;2437;-24
2023/07/09 08:01:49;;;;;;;;;;;;;;;;;;2201812;59;2937;-24
2023/07/09 08:04:19;;;;;;;;;;;;;;;;;;2205350;59;1955;-24
2023/07/09 08:06:50;;;;;;;;;;;;;;;;;;2205616;67;1973;-23
2023/07/09 08:09:20;;;;;;;;;;;;;;;;;;2204278;67;1846;-22
2023/07/09 08:11:50;;;;;;;;;;;;;;;;;;2205440;59;2785;-22
2023/07/09 08:14:20;;;;;;;;;;;;;;;;;;2198823;67;2110;-22
2023/07/09 08:16:51;;;;;;;;;;;;;;;;;;2201748;59;3199;-23
2023/07/09 08:19:21;;;;;;;;;;;;;;;;;;2203947;67;2227;-23
2023/07/09 08:21:51;;;;;;;;;;;;;;;;;;2205856;67;1529;-23
2023/07/09 08:24:22;;;;;;;;;;;;;;;;;;2207158;54;3794;-15
2023/07/09 08:26:52;;;;;;;;;;;;;;;;;;2202698;59;2241;-20
2023/07/09 08:29:25;;;;;;;;;;;;;;;;;;2204038;59;1812;-20
2023/07/09 08:31:56;;;;;;;;;;;;;;;;;;2204950;67;1863;-20
2023/07/09 08:34:26;;;;;;;;;;;;;;;;;;2203147;67;2074;-20
2023/07/09 08:36:59;;;;;;;;;;;;;;;;;;2205095;67;2903;-20
2023/07/09 08:39:29;;;;;;;;;;;;;;;;;;2205645;59;2345;-20
2023/07/09 08:42:02;;;;;;;;;;;;;;;;;;2204834;59;2368;-20
2023/07/09 08:44:48;;;;;;;;;;;;;;;;;;2204335;59;1360;-20
2023/07/09 08:47:21;;;;;;;;;;;;;;;;;;2201738;59;2372;-20
2023/07/09 08:50:12;;;;;;;;;;;;;;;;;;2204225;59;2706;-20
2023/07/09 08:52:44;;;;;;;;;;;;;;;;;;2203130;59;2678;-20
2023/07/09 08:55:16;;;;;;;;;;;;;;;;;;2203112;59;2958;-20
2023/07/09 08:57:52;;;;;;;;;;;;;;;;;;2205445;59;2426;-20
2023/07/09 09:00:41;;;;;;;;;;;;;;;;;;2204843;67;1511;-20
2023/07/09 09:03:20;;;;;;;;;;;;;;;;;;2204917;59;1759;-20
2023/07/09 09:05:50;;;;;;;;;;;;;;;;;;2202254;59;2545;-20
2023/07/09 09:08:30;;;;;;;;;;;;;;;;;;2205547;59;1463;-20
2023/07/09 09:11:20;;;;;;;;;;;;;;;;;;2205129;59;2163;-20
2023/07/09 09:13:53;;;;;;;;;;;;;;;;;;2206502;67;2996;-20
2023/07/09 09:16:23;;;;;;;;;;;;;;;;;;2204917;59;2143;-20
2023/07/09 09:18:58;;;;;;;;;;;;;;;;;;2207587;59;1782;-20
2023/07/09 09:21:32;;;;;;;;;;;;;;;;;;2208284;67;2144;-20
2023/07/09 09:24:17;;;;;;;;;;;;;;;;;;2209509;67;1329;-22
2023/07/09 09:26:48;;;;;;;;;;;;;;;;;;2209433;59;1289;-22
2023/07/09 09:29:18;;;;;;;;;;;;;;;;;;2207526;67;1212;-23
2023/07/09 09:31:50;;;;;;;;;;;;;;;;;;2206612;67;1147;-22
2023/07/09 09:34:28;;;;;;;;;;;;;;;;;;2205604;59;1688;-22
2023/07/09 09:36:58;;;;;;;;;;;;;;;;;;2206792;59;2285;-22
2023/07/09 09:39:29;;;;;;;;;;;;;;;;;;2208681;67;1088;-19
2023/07/09 09:41:59;;;;;;;;;;;;;;;;;;2208679;67;1857;-20
2023/07/09 09:44:31;;;;;;;;;;;;;;;;;;2208226;67;1275;-20
2023/07/09 09:47:01;;;;;;;;;;;;;;;;;;2206545;59;1616;-20
2023/07/09 09:49:38;;;;;;;;;;;;;;;;;;2206543;59;2021;-22
2023/07/09 09:52:15;;;;;;;;;;;;;;;;;;2206526;59;1325;-22
2023/07/09 09:54:56;;;;;;;;;;;;;;;;;;2200639;67;2320;-22
2023/07/09 09:57:27;;;;;;;;;;;;;;;;;;2205435;59;2750;-22
2023/07/09 09:59:58;;;;;;;;;;;;;;;;;;2205582;59;1716;-22
2023/07/09 10:02:28;;;;;;;;;;;;;;;;;;2204652;59;3653;-22
2023/07/09 10:04:58;;;;;;;;;;;;;;;;;;2205454;59;1831;-22
2023/07/09 10:07:39;;;;;;;;;;;;;;;;;;2204778;59;2749;-22
2023/07/09 10:10:19;;;;;;;;;;;;;;;;;;2205096;67;1710;-22
2023/07/09 10:12:51;;;;;;;;;;;;;;;;;;2205716;67;1720;-22
2023/07/09 10:15:24;;;;;;;;;;;;;;;;;;2205614;67;2157;-22
2023/07/09 10:18:24;;;;;;;;;;;;;;;;;;2205513;59;1937;-22
2023/07/09 10:21:06;;;;;;;;;;;;;;;;;;2205405;59;2051;-22
2023/07/09 10:24:08;;;;;;;;;;;;;;;;;;2205846;67;1208;-20
2023/07/09 10:26:41;;;;;;;;;;;;;;;;;;2202196;59;1832;-20
2023/07/09 10:29:25;;;;;;;;;;;;;;;;;;2205310;67;1295;-20
2023/07/09 10:31:55;;;;;;;;;;;;;;;;;;2205480;59;1713;-20
2023/07/09 10:34:28;;;;;;;;;;;;;;;;;;2206194;67;2006;-20
2023/07/09 10:37:17;;;;;;;;;;;;;;;;;;2205236;67;1984;-20
2023/07/09 10:39:48;;;;;;;;;;;;;;;;;;2205740;67;1059;-20
2023/07/09 10:42:30;;;;;;;;;;;;;;;;;;2204592;67;1438;-20
2023/07/09 10:45:09;;;;;;;;;;;;;;;;;;2204721;59;1596;-20
2023/07/09 10:47:40;;;;;;;;;;;;;;;;;;2203790;59;1171;-20
2023/07/09 10:50:14;;;;;;;;;;;;;;;;;;2204980;59;1537;-20
2023/07/09 10:52:47;;;;;;;;;;;;;;;;;;2202387;59;1417;-20
2023/07/09 10:55:37;;;;;;;;;;;;;;;;;;2204297;59;2693;-20
2023/07/09 10:58:26;;;;;;;;;;;;;;;;;;2203752;59;2505;-20
2023/07/09 11:00:57;;;;;;;;;;;;;;;;;;2205429;59;1661;-20
2023/07/09 11:03:35;;;;;;;;;;;;;;;;;;2206055;59;1692;-20
2023/07/09 11:06:13;;;;;;;;;;;;;;;;;;2205555;59;2034;-20
2023/07/09 11:08:44;;;;;;;;;;;;;;;;;;2205967;67;1755;-20
2023/07/09 11:11:36;;;;;;;;;;;;;;;;;;2204787;59;2258;-20
2023/07/09 11:14:23;;;;;;;;;;;;;;;;;;2204961;59;1611;-20
2023/07/09 11:16:55;;;;;;;;;;;;;;;;;;2205653;67;1931;-20
2023/07/09 11:19:25;;;;;;;;;;;;;;;;;;2205431;67;1218;-20
2023/07/09 11:21:59;;;;;;;;;;;;;;;;;;2201583;67;2495;-20
2023/07/09 11:24:46;;;;;;;;;;;;;;;;;;2205646;59;1269;-20
2023/07/09 11:27:27;;;;;;;;;;;;;;;;;;2204805;59;1667;-20
2023/07/09 11:29:59;;;;;;;;;;;;;;;;;;2205645;59;1838;-20
2023/07/09 11:32:29;;;;;;;;;;;;;;;;;;2205843;59;1668;-20
2023/07/09 11:35:09;;;;;;;;;;;;;;;;;;2204150;67;1497;-20
2023/07/09 11:37:46;;;;;;;;;;;;;;;;;;2205686;67;1923;-20
2023/07/09 11:40:18;;;;;;;;;;;;;;;;;;2205608;67;1655;-24
2023/07/09 11:42:51;;;;;;;;;;;;;;;;;;2205273;67;1148;-20
2023/07/09 11:45:30;;;;;;;;;;;;;;;;;;2204828;67;1291;-20
2023/07/09 11:48:20;;;;;;;;;;;;;;;;;;2203895;59;1892;-20
2023/07/09 11:50:52;;;;;;;;;;;;;;;;;;2205794;59;2381;-20
2023/07/09 11:53:22;;;;;;;;;;;;;;;;;;2201545;59;1803;-20
2023/07/09 11:55:53;;;;;;;;;;;;;;;;;;2205688;59;2608;-20
2023/07/09 11:58:23;;;;;;;;;;;;;;;;;;2203710;59;3279;-20
2023/07/09 12:00:57;;;;;;;;;;;;;;;;;;2202154;59;1991;-20
2023/07/09 12:03:32;;;;;;;;;;;;;;;;;;2206189;59;1805;-20
2023/07/09 12:06:04;;;;;;;;;;;;;;;;;;2204425;59;2321;-20
2023/07/09 12:08:36;;;;;;;;;;;;;;;;;;2205572;67;1815;-20
2023/07/09 12:11:18;;;;;;;;;;;;;;;;;;2201673;59;1914;-22
2023/07/09 12:13:49;;;;;;;;;;;;;;;;;;2202116;67;2163;-22
2023/07/09 12:16:27;;;;;;;;;;;;;;;;;;2203883;59;2237;-22
2023/07/09 12:18:58;;;;;;;;;;;;;;;;;;2203457;59;1467;-20
2023/07/09 12:21:30;;;;;;;;;;;;;;;;;;2205443;59;1849;-20
2023/07/09 12:24:01;;;;;;;;;;;;;;;;;;2205366;59;1851;-20
2023/07/09 12:26:31;;;;;;;;;;;;;;;;;;2205966;59;1837;-20
2023/07/09 12:29:01;;;;;;;;;;;;;;;;;;2205623;67;2500;-20
2023/07/09 12:31:32;;;;;;;;;;;;;;;;;;2204545;59;1857;-20
2023/07/09 12:34:02;;;;;;;;;;;;;;;;;;2204840;67;1916;-20
2023/07/09 12:36:35;;;;;;;;;;;;;;;;;;2205999;67;2619;-20
2023/07/09 12:39:05;;;;;;;;;;;;;;;;;;2205484;67;1742;-20
2023/07/09 12:41:38;;;;;;;;;;;;;;;;;;2202330;67;2013;-20
2023/07/09 12:44:14;;;;;;;;;;;;;;;;;;2200588;63;2004;-20
2023/07/09 12:46:45;;;;;;;;;;;;;;;;;;2205571;59;1502;-20
2023/07/09 12:49:26;;;;;;;;;;;;;;;;;;2204661;59;1802;-19
2023/07/09 12:51:57;;;;;;;;;;;;;;;;;;2205396;59;1750;-19
2023/07/09 12:54:28;;;;;;;;;;;;;;;;;;2205294;59;1672;-19
2023/07/09 12:56:59;;;;;;;;;;;;;;;;;;2203837;59;2704;-19
2023/07/09 12:59:40;;;;;;;;;;;;;;;;;;2197589;67;3561;-20
2023/07/09 13:02:26;;;;;;;;;;;;;;;;;;2204471;67;1734;-19
2023/07/09 13:05:01;;;;;;;;;;;;;;;;;;2202075;59;2493;-20
2023/07/09 13:07:34;;;;;;;;;;;;;;;;;;2202342;67;1625;-19
2023/07/09 13:10:19;;;;;;;;;;;;;;;;;;2204896;67;1772;-19
2023/07/09 13:12:50;;;;;;;;;;;;;;;;;;2205262;59;1988;-19
2023/07/09 13:15:29;;;;;;;;;;;;;;;;;;2205188;59;2120;-19
2023/07/09 13:18:02;;;;;;;;;;;;;;;;;;2204876;67;2008;-19
2023/07/09 13:20:34;;;;;;;;;;;;;;;;;;2205256;67;2590;-19
2023/07/09 13:23:12;;;;;;;;;;;;;;;;;;2205330;67;1727;-19
2023/07/09 13:25:43;;;;;;;;;;;;;;;;;;2205319;59;1772;-20
2023/07/09 13:28:19;;;;;;;;;;;;;;;;;;2204642;59;2264;-19
2023/07/09 13:30:50;;;;;;;;;;;;;;;;;;2204712;59;1827;-20
2023/07/09 13:33:21;;;;;;;;;;;;;;;;;;2205631;60;1721;-19
2023/07/09 13:35:53;;;;;;;;;;;;;;;;;;2203644;59;1721;-19
2023/07/09 13:38:24;;;;;;;;;;;;;;;;;;2200572;59;2293;-20
2023/07/09 13:40:56;;;;;;;;;;;;;;;;;;2202691;64;3054;-20
2023/07/09 13:43:26;;;;;;;;;;;;;;;;;;2205014;59;2121;-19
2023/07/09 13:45:57;;;;;;;;;;;;;;;;;;2205385;59;1863;-20
2023/07/09 13:48:28;;;;;;;;;;;;;;;;;;2204527;67;2649;-20
2023/07/09 13:50:59;;;;;;;;;;;;;;;;;;2196624;59;2966;-20
2023/07/09 13:53:30;;;;;;;;;;;;;;;;;;2203692;59;1975;-20
2023/07/09 13:56:01;;;;;;;;;;;;;;;;;;2202788;59;1779;-19
2023/07/09 13:58:31;;;;;;;;;;;;;;;;;;2203614;60;2606;-20
2023/07/09 14:01:09;;;;;;;;;;;;;;;;;;2204120;59;3243;-19
2023/07/09 14:03:40;;;;;;;;;;;;;;;;;;2206057;59;1770;-20
2023/07/09 14:06:11;;;;;;;;;;;;;;;;;;2204491;60;1853;-21
2023/07/09 14:08:41;;;;;;;;;;;;;;;;;;2205292;67;1755;-21
2023/07/09 14:11:13;;;;;;;;;;;;;;;;;;2204929;59;1528;-21
2023/07/09 14:13:44;;;;;;;;;;;;;;;;;;2205079;67;1818;-23
2023/07/09 14:16:17;;;;;;;;;;;;;;;;;;2201497;59;1929;-23
2023/07/09 14:18:47;;;;;;;;;;;;;;;;;;2203370;67;1849;-23
2023/07/09 14:21:20;;;;;;;;;;;;;;;;;;2204230;59;1786;-23
2023/07/09 14:23:51;;;;;;;;;;;;;;;;;;2204139;67;1792;-23
2023/07/09 14:26:21;;;;;;;;;;;;;;;;;;2204350;59;2083;-21
2023/07/09 14:28:53;;;;;;;;;;;;;;;;;;2204856;67;1769;-20
2023/07/09 14:31:26;;;;;;;;;;;;;;;;;;2204781;59;1485;-21
2023/07/09 14:34:11;;;;;;;;;;;;;;;;;;2204152;67;1782;-21
2023/07/09 14:36:41;;;;;;;;;;;;;;;;;;2204089;67;2126;-21
2023/07/09 14:39:12;;;;;;;;;;;;;;;;;;2204116;67;2025;-21
2023/07/09 14:41:43;;;;;;;;;;;;;;;;;;2204674;67;1758;-21
2023/07/09 14:44:19;;;;;;;;;;;;;;;;;;2204583;60;1838;-21
2023/07/09 14:46:50;;;;;;;;;;;;;;;;;;2204004;59;2463;-21
2023/07/09 14:49:20;;;;;;;;;;;;;;;;;;2202428;59;2395;-20
2023/07/09 14:51:54;;;;;;;;;;;;;;;;;;2203378;59;2630;-21
2023/07/09 14:54:26;;;;;;;;;;;;;;;;;;2202204;59;2508;-21
2023/07/09 14:56:57;;;;;;;;;;;;;;;;;;2202573;59;2189;-21
2023/07/09 14:59:27;;;;;;;;;;;;;;;;;;2201276;59;3248;-21
2023/07/09 15:01:58;;;;;;;;;;;;;;;;;;2196745;59;3123;-20
2023/07/09 15:04:30;;;;;;;;;;;;;;;;;;2202110;59;2722;-21
2023/07/09 15:07:01;;;;;;;;;;;;;;;;;;2203611;59;1602;-21
2023/07/09 15:09:36;;;;;;;;;;;;;;;;;;2202546;59;2135;-21
2023/07/09 15:12:19;;;;;;;;;;;;;;;;;;2202404;59;2952;-21
2023/07/09 15:14:49;;;;;;;;;;;;;;;;;;2203632;59;2541;-18
2023/07/09 15:17:22;;;;;;;;;;;;;;;;;;2202748;59;2450;-20
2023/07/09 15:19:52;;;;;;;;;;;;;;;;;;2203665;59;2625;-20
2023/07/09 15:22:30;;;;;;;;;;;;;;;;;;2203220;59;2184;-20
2023/07/09 15:25:01;;;;;;;;;;;;;;;;;;2204157;59;2711;-20
2023/07/09 15:27:31;;;;;;;;;;;;;;;;;;2197403;59;2137;-20
2023/07/09 15:30:04;;;;;;;;;;;;;;;;;;2204535;67;1630;-20
2023/07/09 15:32:34;;;;;;;;;;;;;;;;;;2204649;59;1853;-20
2023/07/09 15:35:05;;;;;;;;;;;;;;;;;;2201402;67;1813;-20
2023/07/09 15:37:35;;;;;;;;;;;;;;;;;;2204706;67;1939;-21
2023/07/09 15:40:15;;;;;;;;;;;;;;;;;;2204110;59;2135;-20
2023/07/09 15:42:47;;;;;;;;;;;;;;;;;;2204894;59;2498;-20
2023/07/09 15:45:18;;;;;;;;;;;;;;;;;;2204379;67;1821;-21
2023/07/09 15:47:49;;;;;;;;;;;;;;;;;;2200780;60;1765;-21
2023/07/09 15:50:21;;;;;;;;;;;;;;;;;;2202777;67;2025;-20
2023/07/09 15:52:52;;;;;;;;;;;;;;;;;;2201110;59;1706;-21
2023/07/09 15:55:25;;;;;;;;;;;;;;;;;;2204386;59;2237;-21
2023/07/09 15:57:56;;;;;;;;;;;;;;;;;;2204817;59;1995;-21
2023/07/09 16:00:27;;;;;;;;;;;;;;;;;;2204755;67;3442;-21
2023/07/09 16:02:58;;;;;;;;;;;;;;;;;;2204511;60;3344;-21
2023/07/09 16:05:29;;;;;;;;;;;;;;;;;;2205478;59;2001;-20
2023/07/09 16:08:00;;;;;;;;;;;;;;;;;;2201924;59;2445;-21
2023/07/09 16:10:30;;;;;;;;;;;;;;;;;;2205864;59;2284;-20
2023/07/09 16:13:04;;;;;;;;;;;;;;;;;;2205395;59;1871;-20
2023/07/09 16:15:35;;;;;;;;;;;;;;;;;;2205473;67;1889;-20
2023/07/09 16:18:08;;;;;;;;;;;;;;;;;;2200016;59;1928;-20
2023/07/09 16:20:39;;;;;;;;;;;;;;;;;;2205925;59;2192;-20
2023/07/09 16:23:20;;;;;;;;;;;;;;;;;;2205675;67;1739;-20
2023/07/09 16:25:50;;;;;;;;;;;;;;;;;;2206714;59;1595;-18
2023/07/09 16:28:21;;;;;;;;;;;;;;;;;;2198247;59;2012;-18
2023/07/09 16:30:51;;;;;;;;;;;;;;;;;;2206380;59;1790;-19
2023/07/09 16:33:21;;;;;;;;;;;;;;;;;;2201259;67;1781;-20
2023/07/09 16:35:53;;;;;;;;;;;;;;;;;;2204659;59;3437;-20
2023/07/09 16:38:23;;;;;;;;;;;;;;;;;;2205715;59;2594;-20
2023/07/09 16:40:53;;;;;;;;;;;;;;;;;;2205222;59;2105;-20
2023/07/09 16:43:24;;;;;;;;;;;;;;;;;;2205678;59;2161;-20
2023/07/09 16:45:54;;;;;;;;;;;;;;;;;;2205164;59;2439;-20
2023/07/09 16:48:24;;;;;;;;;;;;;;;;;;2207348;59;1854;-20
2023/07/09 16:50:56;;;;;;;;;;;;;;;;;;2208456;59;1804;-20
2023/07/09 16:53:26;;;;;;;;;;;;;;;;;;2206427;67;1878;-20
2023/07/09 16:55:56;;;;;;;;;;;;;;;;;;2207449;59;1764;-20
2023/07/09 16:58:32;;;;;;;;;;;;;;;;;;2204781;67;1951;-20
2023/07/09 17:01:03;;;;;;;;;;;;;;;;;;2206815;59;2115;-20
2023/07/09 17:03:33;;;;;;;;;;;;;;;;;;2206756;59;2295;-20
2023/07/09 17:06:03;;;;;;;;;;;;;;;;;;2205511;67;1679;-20
2023/07/09 17:08:36;;;;;;;;;;;;;;;;;;2205306;59;1661;-20
2023/07/09 17:11:08;;;;;;;;;;;;;;;;;;2205005;59;2089;-20
2023/07/09 17:13:39;;;;;;;;;;;;;;;;;;2202108;59;2118;-20
2023/07/09 17:16:09;;;;;;;;;;;;;;;;;;2201705;67;1913;-20
2023/07/09 17:18:39;;;;;;;;;;;;;;;;;;2205950;67;2038;-20
2023/07/09 17:21:10;;;;;;;;;;;;;;;;;;2201595;67;1749;-20
2023/07/09 17:23:40;;;;;;;;;;;;;;;;;;2205793;67;1959;-20
2023/07/09 17:26:10;;;;;;;;;;;;;;;;;;2205009;59;1688;-20
2023/07/09 17:28:40;;;;;;;;;;;;;;;;;;2205552;67;1733;-20
2023/07/09 17:31:11;;;;;;;;;;;;;;;;;;2204959;59;2607;-20
2023/07/09 17:33:44;;;;;;;;;;;;;;;;;;2205313;67;1862;-20
2023/07/09 17:36:14;;;;;;;;;;;;;;;;;;2204752;67;2760;-22
2023/07/09 17:38:44;;;;;;;;;;;;;;;;;;2201370;67;2109;-22